createdAt,value
2022-10-19T00:00:35.068Z,91.15
2022-10-19T00:03:03.983Z,91.02
2022-10-19T00:05:30.421Z,91.46
2022-10-19T00:07:58.956Z,91.63
2022-10-19T00:10:25.564Z,91.81
2022-10-19T00:12:52.012Z,91.46
2022-10-19T00:15:18.514Z,91.57
2022-10-19T00:17:51.025Z,91.46
2022-10-19T00:20:17.681Z,91.87
2022-10-19T00:22:44.109Z,91.56
2022-10-19T00:25:10.518Z,91.12
2022-10-19T00:27:37.773Z,91.11
2022-10-19T00:30:04.830Z,91.49
2022-10-19T00:32:34.151Z,91.49
2022-10-19T00:35:01.775Z,91.53
2022-10-19T00:37:30.008Z,91.30
2022-10-19T00:39:56.414Z,91.16
2022-10-19T00:42:22.794Z,91.98
2022-10-19T00:44:49.110Z,91.69
2022-10-19T00:47:17.267Z,91.54
2022-10-19T00:49:45.632Z,91.61
2022-10-19T00:52:21.659Z,91.68
2022-10-19T00:54:50.427Z,91.92
2022-10-19T00:57:18.612Z,91.66
2022-10-19T00:59:45.961Z,91.79
2022-10-19T01:02:13.349Z,91.40
2022-10-19T01:04:44.748Z,91.81
2022-10-19T01:07:12.592Z,91.69
2022-10-19T01:09:38.964Z,91.63
2022-10-19T01:12:35.247Z,91.79
2022-10-19T01:15:15.487Z,91.80
2022-10-19T01:17:55.536Z,91.98
2022-10-19T01:20:48.652Z,92.05
2022-10-19T01:23:48.446Z,91.94
2022-10-19T01:26:33.540Z,91.22
2022-10-19T01:29:31.815Z,91.58
2022-10-19T01:32:32.918Z,91.83
2022-10-19T01:35:33.176Z,91.82
2022-10-19T01:38:10.779Z,91.68
2022-10-19T01:40:49.310Z,91.50
2022-10-19T01:43:43.907Z,91.65
2022-10-19T01:46:21.961Z,91.53
2022-10-19T01:48:56.569Z,91.49
2022-10-19T01:51:30.376Z,91.83
2022-10-19T01:54:00.919Z,91.86
2022-10-19T01:56:29.835Z,91.84
2022-10-19T01:59:00.118Z,91.98
2022-10-19T02:01:29.115Z,92.16
2022-10-19T02:04:03.042Z,92.31
2022-10-19T02:06:29.563Z,92.09
2022-10-19T02:08:56.049Z,91.96
2022-10-19T02:11:24.066Z,92.36
2022-10-19T02:13:59.411Z,92.26
2022-10-19T02:16:44.173Z,92.38
2022-10-19T02:19:14.634Z,92.36
2022-10-19T02:21:41.267Z,92.09
2022-10-19T02:24:07.688Z,92.29
2022-10-19T02:26:34.399Z,92.54
2022-10-19T02:29:01.128Z,92.38
2022-10-19T02:31:27.678Z,92.01
2022-10-19T02:33:54.515Z,91.56
2022-10-19T02:36:21.484Z,91.82
2022-10-19T02:38:48.185Z,92.02
2022-10-19T02:41:22.129Z,91.89
2022-10-19T02:43:51.196Z,91.76
2022-10-19T02:46:25.564Z,91.87
2022-10-19T02:48:53.055Z,91.74
2022-10-19T02:51:37.146Z,91.85
2022-10-19T02:54:05.595Z,91.49
2022-10-19T02:56:33.508Z,91.57
2022-10-19T02:58:59.981Z,91.65
2022-10-19T03:01:26.721Z,91.88
2022-10-19T03:03:53.210Z,92.00
2022-10-19T03:06:19.606Z,92.04
2022-10-19T03:08:46.496Z,91.94
2022-10-19T03:11:13.045Z,91.76
2022-10-19T03:13:41.567Z,91.78
2022-10-19T03:16:12.748Z,91.75
2022-10-19T03:18:39.517Z,91.50
2022-10-19T03:21:08.423Z,91.39
2022-10-19T03:23:34.889Z,91.85
2022-10-19T03:26:01.891Z,91.84
2022-10-19T03:28:29.342Z,91.94
2022-10-19T03:30:56.323Z,91.46
2022-10-19T03:33:23.433Z,91.56
2022-10-19T03:35:50.127Z,91.71
2022-10-19T03:38:19.882Z,91.85
2022-10-19T03:40:46.512Z,91.95
2022-10-19T03:43:12.896Z,91.57
2022-10-19T03:45:39.285Z,91.78
2022-10-19T03:48:06.026Z,91.99
2022-10-19T03:50:32.748Z,91.98
2022-10-19T03:52:59.216Z,91.59
2022-10-19T03:55:25.640Z,91.95
2022-10-19T03:57:52.130Z,92.06
2022-10-19T04:00:18.604Z,91.88
2022-10-19T04:02:45.004Z,92.31
2022-10-19T04:05:11.444Z,92.09
2022-10-19T04:07:39.237Z,92.32
2022-10-19T04:10:06.037Z,92.47
2022-10-19T04:12:33.278Z,92.49
2022-10-19T04:14:59.615Z,92.24
2022-10-19T04:17:26.149Z,92.46
2022-10-19T04:19:52.524Z,92.39
2022-10-19T04:22:18.912Z,92.43
2022-10-19T04:24:45.615Z,92.48
2022-10-19T04:27:12.086Z,92.65
2022-10-19T04:29:38.533Z,92.39
2022-10-19T04:32:05.047Z,92.34
2022-10-19T04:34:33.333Z,92.68
2022-10-19T04:37:02.036Z,92.75
2022-10-19T04:39:29.901Z,92.82
2022-10-19T04:41:56.356Z,92.87
2022-10-19T04:46:55.408Z,92.80
2022-10-19T04:49:21.985Z,92.81
2022-10-19T04:51:48.473Z,92.73
2022-10-19T04:54:15.079Z,92.69
2022-10-19T04:56:41.489Z,92.59
2022-10-19T04:59:07.940Z,92.39
2022-10-19T05:01:35.695Z,92.22
2022-10-19T05:04:03.409Z,92.44
2022-10-19T05:06:31.280Z,92.34
2022-10-19T05:08:58.110Z,92.07
2022-10-19T05:11:25.169Z,92.55
2022-10-19T05:13:51.950Z,92.42
2022-10-19T05:16:23.797Z,91.97
2022-10-19T05:18:52.455Z,92.25
2022-10-19T05:21:20.594Z,92.29
2022-10-19T05:23:50.072Z,92.35
2022-10-19T05:26:19.182Z,92.17
2022-10-19T05:28:57.359Z,92.15
2022-10-19T05:31:26.886Z,91.90
2022-10-19T05:33:53.719Z,92.26
2022-10-19T05:36:21.800Z,92.31
2022-10-19T05:38:50.330Z,91.94
2022-10-19T05:41:17.309Z,91.72
2022-10-19T05:43:44.621Z,91.87
2022-10-19T05:46:13.927Z,91.98
2022-10-19T05:48:41.289Z,92.09
2022-10-19T05:51:11.616Z,92.39
2022-10-19T05:56:15.113Z,92.15
2022-10-19T05:58:41.766Z,91.90
2022-10-19T06:01:09.486Z,92.39
2022-10-19T06:03:36.115Z,92.47
2022-10-19T06:06:04.467Z,92.62
2022-10-19T06:08:31.268Z,92.61
2022-10-19T06:11:09.547Z,92.66
2022-10-19T06:13:36.869Z,92.31
2022-10-19T06:16:05.936Z,92.55
2022-10-19T06:18:32.916Z,92.54
2022-10-19T06:21:07.330Z,92.71
2022-10-19T06:23:35.149Z,92.71
2022-10-19T06:26:10.551Z,92.36
2022-10-19T06:28:38.774Z,91.90
2022-10-19T06:32:37.092Z,91.38
2022-10-19T06:35:03.638Z,90.91
2022-10-19T06:37:30.074Z,90.87
2022-10-19T06:39:56.464Z,89.77
2022-10-19T06:42:22.994Z,89.74
2022-10-19T06:44:49.387Z,89.60
2022-10-19T06:47:15.795Z,88.87
2022-10-19T06:49:43.331Z,87.17
2022-10-19T06:52:09.768Z,86.91
2022-10-19T06:54:36.146Z,86.54
2022-10-19T06:57:02.535Z,87.00
2022-10-19T06:59:28.994Z,86.64
2022-10-19T07:01:55.704Z,86.20
2022-10-19T07:04:22.164Z,84.74
2022-10-19T07:06:48.598Z,83.67
2022-10-19T07:09:15.225Z,82.50
2022-10-19T07:11:45.867Z,80.90
2022-10-19T07:14:13.095Z,81.94
2022-10-19T07:16:39.820Z,80.92
2022-10-19T07:19:06.459Z,81.66
2022-10-19T07:21:32.979Z,81.84
2022-10-19T07:24:00.160Z,80.05
2022-10-19T07:26:29.789Z,78.63
2022-10-19T07:28:56.962Z,76.82
2022-10-19T07:31:25.035Z,76.50
2022-10-19T07:34:02.196Z,77.15
2022-10-19T07:36:30.840Z,77.85
2022-10-19T07:38:57.686Z,76.41
2022-10-19T07:41:25.958Z,74.64
2022-10-19T07:43:53.383Z,75.13
2022-10-19T07:46:22.645Z,75.62
2022-10-19T07:48:49.517Z,73.12
2022-10-19T07:51:17.304Z,73.62
2022-10-19T07:53:44.209Z,75.46
2022-10-19T07:56:17.045Z,72.92
2022-10-19T07:58:46.964Z,72.41
2022-10-19T08:01:16.745Z,70.87
2022-10-19T08:06:33.446Z,68.09
2022-10-19T08:09:00.045Z,65.75
2022-10-19T08:11:33.124Z,63.90
2022-10-19T08:14:00.001Z,62.23
2022-10-19T08:16:29.255Z,61.98
2022-10-19T08:18:59.383Z,63.49
2022-10-19T08:21:26.940Z,61.15
2022-10-19T08:23:53.761Z,61.84
2022-10-19T08:26:21.140Z,60.07
2022-10-19T08:28:49.079Z,62.18
2022-10-19T08:31:19.768Z,61.12
2022-10-19T08:33:46.476Z,60.92
2022-10-19T08:36:14.265Z,58.60
2022-10-19T08:38:43.767Z,57.74
2022-10-19T08:41:21.050Z,59.09
2022-10-19T08:44:06.368Z,59.66
2022-10-19T08:46:50.139Z,61.66
2022-10-19T08:49:21.973Z,62.24
2022-10-19T08:52:04.306Z,59.87
2022-10-19T08:54:43.779Z,60.78
2022-10-19T08:57:31.904Z,59.95
2022-10-19T09:00:29.717Z,57.99
2022-10-19T09:03:31.886Z,58.36
2022-10-19T09:06:22.020Z,62.67
2022-10-19T09:08:52.343Z,64.12
2022-10-19T09:11:34.409Z,62.99
2022-10-19T09:14:13.622Z,61.30
2022-10-19T09:16:40.052Z,59.56
2022-10-19T09:19:26.184Z,62.15
2022-10-19T09:22:25.167Z,63.48
2022-10-19T09:24:54.465Z,62.06
2022-10-19T09:27:26.512Z,60.93
2022-10-19T09:30:03.701Z,60.83
2022-10-19T09:32:40.012Z,61.59
2022-10-19T09:35:32.270Z,60.91
2022-10-19T09:38:00.002Z,60.58
2022-10-19T09:40:29.424Z,60.57
2022-10-19T09:43:03.719Z,57.79
2022-10-19T09:46:20.307Z,61.03
2022-10-19T09:48:52.189Z,60.71
2022-10-19T09:51:19.902Z,59.62
2022-10-19T09:53:55.159Z,56.66
2022-10-19T09:56:26.706Z,53.81
2022-10-19T09:58:58.203Z,53.12
2022-10-19T10:01:53.919Z,52.10
2022-10-19T10:04:21.818Z,54.64
2022-10-19T10:07:04.684Z,55.30
2022-10-19T10:09:31.578Z,56.07
2022-10-19T10:12:02.581Z,56.69
2022-10-19T10:14:32.558Z,58.14
2022-10-19T10:17:16.624Z,55.88
2022-10-19T10:19:52.657Z,56.14
2022-10-19T10:22:28.413Z,54.91
2022-10-19T10:24:56.437Z,51.99
2022-10-19T10:27:30.117Z,52.27
2022-10-19T10:32:29.177Z,49.34
2022-10-19T10:35:01.510Z,47.65
2022-10-19T10:37:35.498Z,48.68
2022-10-19T10:40:04.013Z,47.73
2022-10-19T10:42:43.773Z,46.92
2022-10-19T10:45:29.065Z,48.79
2022-10-19T10:47:56.711Z,46.81
2022-10-19T10:50:34.369Z,50.02
2022-10-19T10:53:07.162Z,48.74
2022-10-19T10:55:34.669Z,48.06
2022-10-19T10:58:31.848Z,48.39
2022-10-19T11:01:06.673Z,46.86
2022-10-19T11:03:37.785Z,46.36
2022-10-19T11:06:04.380Z,45.53
2022-10-19T11:08:49.991Z,46.54
2022-10-19T11:11:30.795Z,47.96
2022-10-19T11:14:14.436Z,46.81
2022-10-19T11:16:44.932Z,46.52
2022-10-19T11:19:22.223Z,45.81
2022-10-19T11:22:02.533Z,46.17
2022-10-19T11:25:00.274Z,45.72
2022-10-19T11:27:42.634Z,45.59
2022-10-19T11:30:17.205Z,44.94
2022-10-19T11:33:35.004Z,44.97
2022-10-19T11:36:14.423Z,43.62
2022-10-19T11:38:59.792Z,46.30
2022-10-19T11:41:54.145Z,45.14
2022-10-19T11:44:32.775Z,44.78
2022-10-19T11:47:14.186Z,44.58
2022-10-19T11:49:56.654Z,43.43
2022-10-19T11:52:46.329Z,45.38
2022-10-19T11:55:34.185Z,45.25
2022-10-19T11:58:20.880Z,45.67
2022-10-19T12:00:59.135Z,46.75
2022-10-19T12:03:28.154Z,45.19
2022-10-19T12:06:04.381Z,44.05
2022-10-19T12:09:08.751Z,42.39
2022-10-19T12:11:57.127Z,41.79
2022-10-19T12:14:32.151Z,42.92
2022-10-19T12:17:05.825Z,42.21
2022-10-19T12:19:40.116Z,39.74
2022-10-19T12:22:15.231Z,42.36
2022-10-19T12:24:41.937Z,40.66
2022-10-19T12:27:13.456Z,42.56
2022-10-19T12:29:45.136Z,43.39
2022-10-19T12:32:36.010Z,43.17
2022-10-19T12:35:23.618Z,43.03
2022-10-19T12:37:56.748Z,43.03
2022-10-19T12:40:32.597Z,40.71
2022-10-19T12:43:10.860Z,42.18
2022-10-19T12:46:01.758Z,40.86
2022-10-19T12:48:28.194Z,40.02
2022-10-19T12:50:54.563Z,41.65
2022-10-19T12:56:24.284Z,42.29
2022-10-19T12:59:01.763Z,44.00
2022-10-19T13:01:44.052Z,44.19
2022-10-19T13:04:17.776Z,44.61
2022-10-19T13:06:50.348Z,44.94
2022-10-19T13:09:33.934Z,45.11
2022-10-19T13:12:19.656Z,45.60
2022-10-19T13:15:03.078Z,45.70
2022-10-19T13:17:46.113Z,46.46
2022-10-19T13:20:15.744Z,46.11
2022-10-19T13:22:49.581Z,46.26
2022-10-19T13:25:27.696Z,45.73
2022-10-19T13:28:07.833Z,46.55
2022-10-19T13:30:43.794Z,46.95
2022-10-19T13:33:22.589Z,47.31
2022-10-19T13:35:49.713Z,46.18
2022-10-19T13:38:16.030Z,47.34
2022-10-19T13:40:48.669Z,47.86
2022-10-19T13:43:24.967Z,49.03
2022-10-19T13:46:05.198Z,48.84
2022-10-19T13:48:47.788Z,48.76
2022-10-19T13:51:26.690Z,50.83
2022-10-19T13:54:02.275Z,52.12
2022-10-19T13:56:47.395Z,51.09
2022-10-19T13:59:59.137Z,52.09
2022-10-19T14:02:50.780Z,52.71
2022-10-19T14:05:54.965Z,52.31
2022-10-19T14:08:36.919Z,52.30
2022-10-19T14:11:15.929Z,53.29
2022-10-19T14:13:43.645Z,53.61
2022-10-19T14:16:21.802Z,53.71
2022-10-19T14:18:58.932Z,54.60
2022-10-19T14:21:34.092Z,55.15
2022-10-19T14:24:00.621Z,54.59
2022-10-19T14:26:31.000Z,54.73
2022-10-19T14:29:00.281Z,54.71
2022-10-19T14:31:36.096Z,55.03
2022-10-19T14:34:07.727Z,55.09
2022-10-19T14:36:38.971Z,56.23
2022-10-19T14:39:05.963Z,56.42
2022-10-19T14:41:38.315Z,56.74
2022-10-19T14:44:30.178Z,57.08
2022-10-19T14:46:57.025Z,57.07
2022-10-19T14:49:23.591Z,57.57
2022-10-19T14:51:55.367Z,57.81
2022-10-19T14:54:38.888Z,58.31
2022-10-19T14:57:15.827Z,57.58
2022-10-19T14:59:53.041Z,56.77
2022-10-19T15:02:24.677Z,56.39
2022-10-19T15:04:53.255Z,55.52
2022-10-19T15:07:30.334Z,55.13
2022-10-19T15:10:04.577Z,54.22
2022-10-19T15:12:39.098Z,54.50
2022-10-19T15:15:14.963Z,54.60
2022-10-19T15:17:56.391Z,53.65
2022-10-19T15:20:49.643Z,53.55
2022-10-19T15:23:37.118Z,53.73
2022-10-19T15:26:26.973Z,54.19
2022-10-19T15:28:55.697Z,55.17
2022-10-19T15:31:27.473Z,55.01
2022-10-19T15:33:57.282Z,54.83
2022-10-19T15:36:25.463Z,54.05
2022-10-19T15:39:06.242Z,55.48
2022-10-19T15:41:44.735Z,57.10
2022-10-19T15:44:32.781Z,57.72
2022-10-19T15:47:21.973Z,58.29
2022-10-19T15:49:56.271Z,58.46
2022-10-19T15:52:24.864Z,58.85
2022-10-19T15:54:53.650Z,59.68
2022-10-19T15:57:35.871Z,60.72
2022-10-19T16:00:17.216Z,60.53
2022-10-19T16:02:44.345Z,61.45
2022-10-19T16:05:11.337Z,61.72
2022-10-19T16:07:40.135Z,62.39
2022-10-19T16:10:07.735Z,62.78
2022-10-19T16:12:36.322Z,63.34
2022-10-19T16:15:03.277Z,63.13
2022-10-19T16:17:29.812Z,63.41
2022-10-19T16:19:56.349Z,64.49
2022-10-19T16:22:22.849Z,64.63
2022-10-19T16:24:49.248Z,65.28
2022-10-19T16:27:16.384Z,65.23
2022-10-19T16:29:44.762Z,65.70
2022-10-19T16:32:11.288Z,65.79
2022-10-19T16:34:38.954Z,66.57
2022-10-19T16:37:07.064Z,66.55
2022-10-19T16:39:34.573Z,66.57
2022-10-19T16:42:01.016Z,66.46
2022-10-19T16:44:27.405Z,66.80
2022-10-19T16:46:56.552Z,67.07
2022-10-19T16:49:23.495Z,67.47
2022-10-19T16:51:51.984Z,67.50
2022-10-19T16:54:21.438Z,67.86
2022-10-19T16:56:48.371Z,67.82
2022-10-19T16:59:17.600Z,68.24
2022-10-19T17:01:45.521Z,68.30
2022-10-19T17:04:13.033Z,68.61
2022-10-19T17:06:40.570Z,69.07
2022-10-19T17:11:53.833Z,69.20
2022-10-19T17:14:20.212Z,69.47
2022-10-19T17:16:46.620Z,70.09
2022-10-19T17:19:13.145Z,70.53
2022-10-19T17:21:39.587Z,70.32
2022-10-19T17:24:07.961Z,70.74
2022-10-19T17:26:42.079Z,70.81
2022-10-19T17:29:09.397Z,71.09
2022-10-19T17:31:37.664Z,71.55
2022-10-19T17:34:04.695Z,71.72
2022-10-19T17:36:33.688Z,72.01
2022-10-19T17:39:04.217Z,72.36
2022-10-19T17:41:31.053Z,72.07
2022-10-19T17:43:58.117Z,72.17
2022-10-19T17:46:28.109Z,72.56
2022-10-19T17:48:54.786Z,72.78
2022-10-19T17:51:24.849Z,73.10
2022-10-19T17:53:51.294Z,73.18
2022-10-19T17:57:38.258Z,73.64
2022-10-19T18:00:07.344Z,73.69
2022-10-19T18:02:35.453Z,73.93
2022-10-19T18:05:02.569Z,73.57
2022-10-19T18:07:29.001Z,73.35
2022-10-19T18:09:55.354Z,73.57
2022-10-19T18:12:21.827Z,73.64
2022-10-19T18:14:48.218Z,73.64
2022-10-19T18:17:14.589Z,73.59
2022-10-19T18:19:41.046Z,73.64
2022-10-19T18:22:08.678Z,73.40
2022-10-19T18:24:35.066Z,73.36
2022-10-19T18:27:01.446Z,73.60
2022-10-19T18:29:28.452Z,73.67
2022-10-19T18:31:55.163Z,73.74
2022-10-19T18:34:24.571Z,74.10
2022-10-19T18:36:51.093Z,74.15
2022-10-19T18:39:18.138Z,74.39
2022-10-19T18:41:44.934Z,74.47
2022-10-19T18:44:14.766Z,74.69
2022-10-19T18:46:41.320Z,75.02
2022-10-19T18:49:08.495Z,75.04
2022-10-19T18:51:35.425Z,75.30
2022-10-19T18:54:02.106Z,75.50
2022-10-19T18:56:29.480Z,75.62
2022-10-19T18:58:56.720Z,75.75
2022-10-19T19:01:28.334Z,75.43
2022-10-19T19:03:56.898Z,75.70
2022-10-19T19:06:29.382Z,76.05
2022-10-19T19:08:57.026Z,76.27
2022-10-19T19:11:35.863Z,76.36
2022-10-19T19:14:07.338Z,76.55
2022-10-19T19:16:37.492Z,76.69
2022-10-19T19:19:04.932Z,77.26
2022-10-19T19:21:32.087Z,77.42
2022-10-19T19:24:01.674Z,77.86
2022-10-19T19:26:31.445Z,77.76
2022-10-19T19:28:58.724Z,77.94
2022-10-19T19:31:25.337Z,78.25
2022-10-19T19:33:52.409Z,78.20
2022-10-19T19:36:19.833Z,78.66
2022-10-19T19:38:48.830Z,78.26
2022-10-19T19:41:16.493Z,78.46
2022-10-19T19:43:43.716Z,78.56
2022-10-19T19:46:13.561Z,78.64
2022-10-19T19:48:42.424Z,78.62
2022-10-19T19:51:11.094Z,78.65
2022-10-19T19:53:37.880Z,78.69
2022-10-19T19:56:06.638Z,78.53
2022-10-19T19:58:35.609Z,78.63
2022-10-19T20:01:21.203Z,79.01
2022-10-19T20:03:48.688Z,78.67
2022-10-19T20:06:20.831Z,78.75
2022-10-19T20:08:50.192Z,78.80
2022-10-19T20:11:17.560Z,78.71
2022-10-19T20:13:45.490Z,78.93
2022-10-19T20:16:18.276Z,78.55
2022-10-19T20:18:47.794Z,78.36
2022-10-19T20:21:18.014Z,78.51
2022-10-19T20:23:46.351Z,78.77
2022-10-19T20:26:20.629Z,78.87
2022-10-19T20:28:47.752Z,78.97
2022-10-19T20:31:15.017Z,79.24
2022-10-19T20:33:43.224Z,79.42
2022-10-19T20:36:16.443Z,79.44
2022-10-19T20:38:50.037Z,79.73
2022-10-19T20:41:17.922Z,80.02
2022-10-19T20:43:44.734Z,80.25
2022-10-19T20:46:14.852Z,80.08
2022-10-19T20:48:41.961Z,80.04
2022-10-19T20:51:13.491Z,80.16
2022-10-19T20:53:40.481Z,80.07
2022-10-19T20:56:09.500Z,80.27
2022-10-19T20:58:38.587Z,80.67
2022-10-19T21:01:07.266Z,80.56
2022-10-19T21:03:33.875Z,80.77
2022-10-19T21:06:08.992Z,81.02
2022-10-19T21:08:36.548Z,81.53
2022-10-19T21:11:17.946Z,81.64
2022-10-19T21:13:45.701Z,81.43
2022-10-19T21:16:15.328Z,81.66
2022-10-19T21:18:42.787Z,82.01
2022-10-19T21:21:13.118Z,82.36
2022-10-19T21:23:39.921Z,82.52
2022-10-19T21:26:06.588Z,82.61
2022-10-19T21:28:33.351Z,82.79
2022-10-19T21:31:08.249Z,82.84
2022-10-19T21:33:35.331Z,82.97
2022-10-19T21:36:03.919Z,83.07
2022-10-19T21:38:31.001Z,83.23
2022-10-19T21:41:01.872Z,83.33
2022-10-19T21:43:28.853Z,83.36
2022-10-19T21:45:55.427Z,83.47
2022-10-19T21:48:22.591Z,83.60
2022-10-19T21:50:49.694Z,83.49
2022-10-19T21:53:20.354Z,83.56
2022-10-19T21:55:47.319Z,83.62
2022-10-19T21:58:14.101Z,83.54
2022-10-19T22:00:40.855Z,83.65
2022-10-19T22:03:07.967Z,83.86
2022-10-19T22:05:34.472Z,84.12
2022-10-19T22:08:00.842Z,84.13
2022-10-19T22:10:30.782Z,84.43
2022-10-19T22:12:57.433Z,84.81
2022-10-19T22:15:23.846Z,85.23
2022-10-19T22:17:50.232Z,85.35
2022-10-19T22:20:18.772Z,85.50
2022-10-19T22:22:45.143Z,85.65
2022-10-19T22:25:11.502Z,86.17
2022-10-19T22:27:37.924Z,86.23
2022-10-19T22:30:05.856Z,86.57
2022-10-19T22:32:32.371Z,86.86
2022-10-19T22:34:58.770Z,86.94
2022-10-19T22:37:25.150Z,87.19
2022-10-19T22:39:51.854Z,87.39
2022-10-19T22:42:18.948Z,87.45
2022-10-19T22:44:45.452Z,87.64
2022-10-19T22:47:11.885Z,87.63
2022-10-19T22:49:38.229Z,87.67
2022-10-19T22:52:05.042Z,87.61
2022-10-19T22:54:32.666Z,87.76
2022-10-19T22:56:59.045Z,87.96
2022-10-19T22:59:25.467Z,87.93
2022-10-19T23:01:51.967Z,87.82
2022-10-19T23:04:18.557Z,87.73
2022-10-19T23:06:45.147Z,87.60
2022-10-19T23:09:11.640Z,87.67
2022-10-19T23:11:38.096Z,87.83
2022-10-19T23:14:04.552Z,87.41
2022-10-19T23:16:31.015Z,87.18
2022-10-19T23:18:57.415Z,87.01
2022-10-19T23:21:23.841Z,86.83
2022-10-19T23:23:50.253Z,86.91
2022-10-19T23:26:22.123Z,86.87
2022-10-19T23:28:49.980Z,86.23
2022-10-19T23:31:24.509Z,86.25
2022-10-19T23:33:53.774Z,85.82
2022-10-19T23:36:26.792Z,86.11
2022-10-19T23:38:55.284Z,85.76
2022-10-19T23:41:22.210Z,85.40
2022-10-19T23:43:50.431Z,85.45
2022-10-19T23:46:18.142Z,85.17
2022-10-19T23:48:44.596Z,85.10
2022-10-19T23:51:16.494Z,84.98
2022-10-19T23:53:44.558Z,84.81
2022-10-19T23:56:13.685Z,85.15
